Time;durP1;ratioP1;P1;durP2;ratioP2;P2;SDS_P1;SDS_P2;PMS_P1;PMS_P2;Temp;Humidity;BMP_temperature;BMP_pressure;BME280_temperature;BME280_humidity;BME280_pressure;Samples;Min_cycle;Max_cycle;Signal;HPM_P1;HPM_P2
2022/12/05 00:01:21;;;;;;;;;32.00;24.00;;;;;8.16;70.73;-19431.09;5069149;28;45610;-93
2022/12/05 00:03:49;;;;;;;;;31.00;28.00;;;;;8.14;71.16;-19430.69;5051215;28;45423;-92
2022/12/05 00:06:15;;;;;;;;;32.67;27.67;;;;;8.02;71.07;-19427.47;5058950;28;45571;-92
2022/12/05 00:08:59;;;;;;;;;33.50;27.75;;;;;8.02;70.84;-19427.47;5055897;28;47256;-91
2022/12/05 00:11:27;;;;;;;;;28.25;26.25;;;;;8.10;70.99;-19429.47;5059094;28;45786;-91
2022/12/05 00:13:55;;;;;;;;;30.50;28.00;;;;;7.57;70.99;-19415.69;5058417;27;45428;-91
2022/12/05 00:16:24;;;;;;;;;28.33;24.33;;;;;8.13;71.26;-19430.31;5058548;28;45819;-91
2022/12/05 00:18:50;;;;;;;;;32.00;26.33;;;;;7.89;71.32;-19424.06;5057910;28;47316;-87
2022/12/05 00:21:21;;;;;;;;;27.25;25.75;;;;;8.13;71.25;-19430.44;5074127;27;45412;-87
2022/12/05 00:23:47;;;;;;;;;27.75;23.25;;;;;8.12;71.57;-19430.16;5066032;27;45491;-87
2022/12/05 00:26:13;;;;;;;;;31.00;27.33;;;;;8.00;71.08;-19427.06;5053280;28;45802;-87
2022/12/05 00:28:40;;;;;;;;;31.00;27.33;;;;;7.61;70.85;-19416.78;5066178;27;45366;-86
2022/12/05 00:31:08;;;;;;;;;31.00;27.00;;;;;8.07;70.55;-19428.81;5073626;27;45519;-86
2022/12/05 00:33:34;;;;;;;;;29.67;28.00;;;;;7.96;70.96;-19425.97;5073180;27;45789;-87
2022/12/05 00:36:02;;;;;;;;;30.67;27.33;;;;;8.05;71.01;-19428.28;5056104;28;45644;-86
2022/12/05 00:38:28;;;;;;;;;32.33;24.33;;;;;7.95;70.97;-19425.56;5071516;27;46580;-87
2022/12/05 00:40:53;;;;;;;;;32.00;23.67;;;;;7.80;71.26;-19421.78;5076607;27;45500;-87
2022/12/05 00:43:19;;;;;;;;;30.33;26.33;;;;;8.04;71.04;-19428.13;5076518;27;45781;-86
2022/12/05 00:45:44;;;;;;;;;35.75;30.75;;;;;7.48;71.03;-19413.13;5077347;27;45488;-87
2022/12/05 00:48:17;;;;;;;;;27.25;26.50;;;;;7.53;70.98;-19414.47;5077335;27;45432;-86
2022/12/05 00:50:42;;;;;;;;;26.75;25.00;;;;;7.56;71.11;-19415.28;5059338;28;45391;-86
2022/12/05 00:53:08;;;;;;;;;30.00;28.50;;;;;7.87;71.15;-19423.53;5077289;27;45615;-87
2022/12/05 00:55:36;;;;;;;;;35.00;30.75;;;;;7.99;71.15;-19426.66;5075430;27;45431;-86
2022/12/05 00:58:01;;;;;;;;;37.25;29.50;;;;;7.99;71.44;-19426.66;5076453;27;46653;-87
2022/12/05 01:00:27;;;;;;;;;31.25;29.25;;;;;7.91;71.23;-19424.63;5054067;27;45471;-86
2022/12/05 01:02:52;;;;;;;;;22.25;19.25;;;;;7.46;71.59;-19412.56;5080005;27;45783;-86
2022/12/05 01:05:17;;;;;;;;;29.75;28.25;;;;;7.95;71.74;-19425.69;5058967;28;46600;-87
2022/12/05 01:07:43;;;;;;;;;31.25;28.00;;;;;7.98;71.18;-19426.38;5075699;27;46594;-87
2022/12/05 01:10:08;;;;;;;;;31.50;30.75;;;;;6.85;71.58;-19396.59;5085372;27;45476;-87
2022/12/05 01:12:33;;;;;;;;;26.33;26.33;;;;;7.29;70.99;-19408.09;5077353;27;45506;-87
2022/12/05 01:14:59;;;;;;;;;33.25;25.00;;;;;7.83;71.75;-19422.44;5086549;27;45794;-87
2022/12/05 01:17:24;;;;;;;;;30.75;27.75;;;;;7.54;71.36;-19414.75;5080601;27;45897;-86
2022/12/05 01:19:49;;;;;;;;;35.75;26.25;;;;;7.72;71.12;-19419.59;5068270;27;45952;-90
2022/12/05 01:22:15;;;;;;;;;31.75;28.00;;;;;7.55;71.31;-19415.16;5095887;27;45521;-90
2022/12/05 01:24:40;;;;;;;;;27.75;27.00;;;;;7.36;71.56;-19410.13;5068528;28;45498;-90
2022/12/05 01:27:06;;;;;;;;;29.50;28.50;;;;;7.45;71.14;-19412.31;5074149;27;45508;-91
2022/12/05 01:29:31;;;;;;;;;31.67;28.33;;;;;6.71;71.59;-19392.94;5087895;27;45353;-92
2022/12/05 01:31:57;;;;;;;;;25.67;23.67;;;;;6.79;71.40;-19394.97;5065808;27;45334;-91
2022/12/05 01:34:22;;;;;;;;;29.00;27.00;;;;;7.97;71.56;-19426.25;5059896;28;45518;-92
2022/12/05 01:36:47;;;;;;;;;37.50;28.00;;;;;7.65;71.62;-19417.59;5077815;27;45958;-91
2022/12/05 01:39:14;;;;;;;;;28.25;26.75;;;;;7.95;71.61;-19425.56;5069351;27;45691;-92
2022/12/05 01:41:43;;;;;;;;;30.00;24.00;;;;;7.94;71.31;-19425.44;5062083;27;45537;-90
2022/12/05 01:44:11;;;;;;;;;31.67;28.33;;;;;7.95;72.02;-19425.69;5077798;28;45402;-91
2022/12/05 01:46:47;;;;;;;;;27.33;25.00;;;;;7.96;72.25;-19425.84;5076139;28;46340;-91
2022/12/05 01:49:24;;;;;;;;;26.67;26.00;;;;;7.44;71.81;-19412.16;5059017;28;45477;-91
2022/12/05 01:51:58;;;;;;;;;37.75;32.50;;;;;7.83;71.21;-19422.44;5059799;28;45618;-92
2022/12/05 01:54:24;;;;;;;;;31.25;26.75;;;;;7.94;71.50;-19425.44;5078541;27;45594;-92
2022/12/05 01:56:57;;;;;;;;;34.75;27.75;;;;;7.92;71.60;-19424.88;5058920;28;47810;-92
2022/12/05 01:59:25;;;;;;;;;28.67;26.33;;;;;7.70;71.32;-19419.06;5061345;27;45507;-91
2022/12/05 02:01:51;;;;;;;;;29.75;24.00;;;;;7.78;71.45;-19421.22;5077434;27;45388;-91
2022/12/05 02:04:16;;;;;;;;;32.25;28.50;;;;;7.52;71.86;-19414.19;5077213;27;45506;-93
2022/12/05 02:06:42;;;;;;;;;23.75;23.75;;;;;7.72;72.09;-19419.47;5055484;28;47944;-91
2022/12/05 02:09:07;;;;;;;;;35.67;30.67;;;;;7.78;72.13;-19421.09;5055999;27;45614;-91
2022/12/05 02:11:41;;;;;;;;;26.33;26.33;;;;;7.89;72.50;-19424.06;5059458;28;45714;-90
2022/12/05 02:14:28;;;;;;;;;34.75;30.50;;;;;7.88;72.11;-19423.66;5057858;27;45959;-91
2022/12/05 02:17:05;;;;;;;;;34.50;27.75;;;;;7.89;72.51;-19423.94;5075403;27;46925;-91
2022/12/05 02:19:59;;;;;;;;;37.00;29.50;;;;;7.86;72.15;-19423.13;5061098;28;45485;-86
2022/12/05 02:22:52;;;;;;;;;41.50;34.50;;;;;7.69;71.90;-19418.66;5061214;27;45713;-87
2022/12/05 02:25:33;;;;;;;;;36.50;33.25;;;;;7.80;71.93;-19421.78;5074689;27;45586;-87
2022/12/05 02:28:18;;;;;;;;;38.50;33.75;;;;;7.77;72.05;-19420.81;5071136;27;45562;-86
2022/12/05 02:31:03;;;;;;;;;39.75;33.25;;;;;7.69;72.14;-19418.66;5074048;27;45472;-87
2022/12/05 02:33:44;;;;;;;;;35.00;30.50;;;;;7.28;72.24;-19407.97;5067315;27;45656;-86
2022/12/05 02:36:10;;;;;;;;;40.50;33.25;;;;;7.72;72.17;-19419.59;5078001;27;45605;-87
2022/12/05 02:38:46;;;;;;;;;30.00;28.00;;;;;7.46;72.26;-19412.72;5071151;27;45619;-87
2022/12/05 02:41:25;;;;;;;;;43.50;34.50;;;;;7.20;71.93;-19405.81;5046951;28;45567;-86
2022/12/05 02:43:54;;;;;;;;;35.00;32.50;;;;;7.68;71.91;-19418.38;5073653;27;45468;-86
2022/12/05 02:46:27;;;;;;;;;34.75;32.75;;;;;7.67;71.69;-19418.13;5054343;28;45628;-86
2022/12/05 02:49:02;;;;;;;;;34.50;29.75;;;;;7.66;72.22;-19417.84;5070395;27;46583;-87
2022/12/05 02:51:32;;;;;;;;;41.50;32.75;;;;;7.49;72.09;-19413.53;5093390;27;45477;-86
2022/12/05 02:54:02;;;;;;;;;40.25;34.00;;;;;7.40;72.82;-19411.22;5060011;28;46425;-86
2022/12/05 02:56:31;;;;;;;;;36.00;31.75;;;;;7.60;72.38;-19416.38;5067216;27;45542;-86
2022/12/05 02:58:56;;;;;;;;;36.75;33.25;;;;;6.92;72.10;-19398.50;5077375;27;45919;-86
2022/12/05 03:01:26;;;;;;;;;41.50;34.25;;;;;7.57;72.38;-19415.56;5093180;27;45486;-86
2022/12/05 03:03:52;;;;;;;;;35.50;29.75;;;;;7.24;72.63;-19406.75;5075213;27;45535;-86
2022/12/05 03:06:24;;;;;;;;;34.25;32.75;;;;;7.55;72.38;-19415.16;5066567;27;45799;-86
2022/12/05 03:09:11;;;;;;;;;39.50;35.00;;;;;7.57;72.94;-19415.69;5082680;27;45492;-85
2022/12/05 03:11:42;;;;;;;;;38.75;34.50;;;;;7.02;72.99;-19400.94;5075930;27;45567;-87
2022/12/05 03:14:15;;;;;;;;;41.50;34.25;;;;;7.63;73.03;-19417.03;5081045;27;45527;-87
2022/12/05 03:16:47;;;;;;;;;36.25;35.00;;;;;7.37;72.66;-19410.41;5086504;27;45646;-87
2022/12/05 03:19:52;;;;;;;;;34.75;30.00;;;;;7.59;73.03;-19416.22;5069648;27;47365;-92
2022/12/05 03:22:26;;;;;;;;;39.50;33.00;;;;;7.47;72.58;-19412.97;5054365;28;46088;-93
2022/12/05 03:24:52;;;;;;;;;40.00;33.00;;;;;7.28;72.47;-19407.97;5070192;27;45495;-93
2022/12/05 03:27:28;;;;;;;;;42.25;35.50;;;;;7.33;72.69;-19409.31;5047986;28;45576;-91
2022/12/05 03:29:56;;;;;;;;;44.50;35.00;;;;;7.57;73.58;-19415.69;5085571;27;46499;-93
2022/12/05 03:32:30;;;;;;;;;44.75;35.75;;;;;7.58;72.37;-19415.97;5074044;27;45401;-93
2022/12/05 03:35:03;;;;;;;;;40.75;35.75;;;;;7.58;72.64;-19415.81;5074286;27;45651;-94
2022/12/05 03:37:40;;;;;;;;;46.25;38.00;;;;;7.57;72.28;-19415.56;5054322;28;45840;-91
2022/12/05 03:40:10;;;;;;;;;37.00;34.00;;;;;6.92;72.45;-19398.50;5072758;27;47467;-92
2022/12/05 03:42:42;;;;;;;;;49.00;37.25;;;;;7.51;72.39;-19414.06;5050998;28;45898;-90
2022/12/05 03:45:14;;;;;;;;;44.50;36.00;;;;;7.43;73.03;-19411.75;5045423;28;46971;-90
2022/12/05 03:47:56;;;;;;;;;42.00;34.50;;;;;7.52;72.75;-19414.19;5073543;27;45773;-91
2022/12/05 03:50:28;;;;;;;;;40.50;33.75;;;;;7.52;72.76;-19414.34;5051460;28;47382;-91
2022/12/05 03:52:58;;;;;;;;;45.50;34.00;;;;;7.44;72.87;-19412.16;5064492;27;45695;-90
2022/12/05 03:55:28;;;;;;;;;43.00;37.00;;;;;7.30;72.63;-19408.38;5080436;27;45412;-91
2022/12/05 03:58:01;;;;;;;;;36.50;33.75;;;;;7.06;72.90;-19402.16;5052050;28;45719;-88
2022/12/05 04:00:33;;;;;;;;;45.00;34.50;;;;;7.51;72.62;-19413.94;5074477;27;46640;-91
2022/12/05 04:03:09;;;;;;;;;44.50;35.25;;;;;7.42;73.17;-19411.50;5086012;27;45424;-91
2022/12/05 04:05:49;;;;;;;;;41.50;37.00;;;;;7.29;72.71;-19408.09;5061558;28;45341;-92
2022/12/05 04:08:52;;;;;;;;;48.50;37.00;;;;;7.45;72.54;-19412.31;5065284;27;45528;-91
2022/12/05 04:11:22;;;;;;;;;42.75;36.00;;;;;7.11;72.59;-19403.50;5010531;28;45888;-90
2022/12/05 04:13:51;;;;;;;;;41.25;35.25;;;;;7.35;72.98;-19409.72;5007216;28;45554;-91
2022/12/05 04:19:13;;;;;;;;;42.00;33.25;;;;;7.53;73.11;-19414.47;5013608;28;45789;-90
2022/12/05 04:21:44;;;;;;;;;39.50;34.75;;;;;7.34;72.83;-19409.59;5012684;28;46648;-91
2022/12/05 04:27:32;;;;;;;;;44.75;37.00;;;;;7.38;72.60;-19410.53;5011845;28;45572;-91
2022/12/05 04:30:03;;;;;;;;;41.25;34.75;;;;;7.50;73.34;-19413.66;5013023;28;45658;-90
2022/12/05 04:32:37;;;;;;;;;35.50;33.75;;;;;6.93;73.34;-19398.75;4998329;28;48527;-91
2022/12/05 04:35:11;;;;;;;;;33.25;31.50;;;;;7.33;73.36;-19409.19;4990648;28;46007;-90
2022/12/05 04:37:41;;;;;;;;;34.25;30.50;;;;;6.77;73.08;-19394.44;4998792;28;46151;-90
2022/12/05 04:40:14;;;;;;;;;37.75;33.00;;;;;7.36;72.51;-19410.00;5010008;28;45653;-89
2022/12/05 04:42:41;;;;;;;;;43.25;35.00;;;;;7.11;73.01;-19403.38;4990467;28;48133;-90
2022/12/05 04:45:11;;;;;;;;;42.75;36.75;;;;;7.54;72.79;-19414.75;5023842;28;45525;-89
2022/12/05 04:47:47;;;;;;;;;41.50;36.00;;;;;7.36;72.63;-19410.13;5054559;28;45500;-92
2022/12/05 04:50:15;;;;;;;;;40.25;33.25;;;;;7.54;72.24;-19414.75;5058841;28;45630;-92
2022/12/05 04:52:45;;;;;;;;;34.25;29.25;;;;;7.53;72.33;-19414.59;5059910;27;47462;-90
2022/12/05 04:55:24;;;;;;;;;34.50;32.00;;;;;7.31;72.44;-19408.66;5069315;28;45730;-90
2022/12/05 04:57:59;;;;;;;;;36.75;33.50;;;;;7.53;72.67;-19414.59;5050547;28;45540;-90
2022/12/05 05:00:28;;;;;;;;;38.75;33.00;;;;;7.36;72.41;-19410.13;5076631;28;45378;-91
2022/12/05 05:02:56;;;;;;;;;34.25;33.00;;;;;7.52;72.67;-19414.19;5076322;27;46227;-90
2022/12/05 05:05:22;;;;;;;;;41.00;33.50;;;;;7.46;72.77;-19412.72;5073123;27;46145;-92
2022/12/05 05:07:52;;;;;;;;;35.75;31.25;;;;;7.50;72.69;-19413.78;5059513;28;45416;-91
2022/12/05 05:10:38;;;;;;;;;36.50;32.00;;;;;7.01;72.86;-19400.66;5077614;27;45459;-90
2022/12/05 05:13:04;;;;;;;;;42.75;32.00;;;;;7.18;72.08;-19405.41;5056488;27;47152;-91
2022/12/05 05:15:29;;;;;;;;;41.00;32.25;;;;;7.18;72.22;-19405.25;5054409;28;46119;-91
2022/12/05 05:17:55;;;;;;;;;40.00;30.75;;;;;7.06;72.61;-19402.00;5078648;27;45415;-92
2022/12/05 05:20:23;;;;;;;;;40.25;32.00;;;;;7.51;72.74;-19414.06;5076332;27;45951;-86
2022/12/05 05:22:51;;;;;;;;;31.50;26.75;;;;;7.40;72.52;-19411.22;5060753;28;46471;-86
2022/12/05 05:25:18;;;;;;;;;39.50;33.00;;;;;7.06;72.65;-19402.00;5046794;28;45999;-86
2022/12/05 05:27:47;;;;;;;;;32.25;32.00;;;;;7.49;72.92;-19413.53;5076982;27;45889;-86
2022/12/05 05:30:13;;;;;;;;;37.75;32.75;;;;;6.93;72.59;-19398.63;5064546;27;45545;-85
2022/12/05 05:32:38;;;;;;;;;38.50;32.25;;;;;7.31;72.71;-19408.78;5086124;27;46311;-85
2022/12/05 05:35:04;;;;;;;;;35.50;33.00;;;;;6.02;72.90;-19374.50;5049041;28;45830;-85
2022/12/05 05:37:29;;;;;;;;;37.75;33.25;;;;;6.55;72.79;-19388.75;5073406;27;45491;-85
2022/12/05 05:39:55;;;;;;;;;44.25;35.25;;;;;7.02;72.84;-19401.06;5073772;27;45472;-86
2022/12/05 05:42:20;;;;;;;;;35.75;32.00;;;;;7.11;73.08;-19403.38;5055048;28;45540;-87
2022/12/05 05:44:45;;;;;;;;;37.25;32.75;;;;;6.90;73.21;-19397.81;5058113;27;45610;-87
2022/12/05 05:47:11;;;;;;;;;38.00;34.00;;;;;6.71;73.19;-19392.81;5072840;27;45744;-86
2022/12/05 05:49:36;;;;;;;;;46.00;38.75;;;;;7.17;73.24;-19405.00;5074858;27;45444;-85
2022/12/05 05:52:01;;;;;;;;;36.75;32.50;;;;;6.68;72.96;-19392.00;5074418;27;45584;-85
2022/12/05 05:54:27;;;;;;;;;37.50;33.75;;;;;7.00;72.99;-19400.38;5053510;27;45732;-87
2022/12/05 05:56:52;;;;;;;;;38.25;33.25;;;;;7.22;72.97;-19406.22;5078838;27;45821;-87
2022/12/05 05:59:17;;;;;;;;;40.75;35.75;;;;;6.83;73.29;-19395.91;5077208;27;45448;-86
2022/12/05 06:01:43;;;;;;;;;39.50;35.25;;;;;7.39;73.21;-19410.81;5069580;28;46428;-85
2022/12/05 06:04:08;;;;;;;;;44.50;35.75;;;;;6.97;73.39;-19399.72;5059658;27;45543;-85
2022/12/05 06:06:33;;;;;;;;;35.50;28.50;;;;;7.28;73.42;-19407.84;5073983;27;45533;-86
2022/12/05 06:08:59;;;;;;;;;46.25;36.50;;;;;7.31;73.72;-19408.66;5057353;27;45890;-87
2022/12/05 06:11:27;;;;;;;;;25.75;24.25;;;;;6.97;73.32;-19399.72;5074540;27;45515;-86
2022/12/05 06:13:59;;;;;;;;;34.25;32.75;;;;;6.74;73.04;-19393.63;5054916;27;45626;-86
2022/12/05 06:16:25;;;;;;;;;30.75;27.75;;;;;7.18;73.14;-19405.25;5070222;27;47741;-87
2022/12/05 06:18:51;;;;;;;;;40.25;33.25;;;;;7.38;73.00;-19410.53;5055360;28;45922;-90
2022/12/05 06:21:17;;;;;;;;;32.00;29.25;;;;;6.84;73.31;-19396.31;5074719;27;45468;-89
2022/12/05 06:23:42;;;;;;;;;41.75;31.25;;;;;7.04;73.04;-19401.59;5042952;27;45541;-93
2022/12/05 06:26:14;;;;;;;;;37.00;31.25;;;;;7.37;72.85;-19410.41;5060559;28;45393;-93
2022/12/05 06:28:40;;;;;;;;;37.25;31.25;;;;;7.16;72.78;-19404.88;5062686;28;45555;-94
2022/12/05 06:31:30;;;;;;;;;31.00;31.00;;;;;7.16;72.95;-19404.88;5078517;27;45413;-94
2022/12/05 06:33:59;;;;;;;;;44.00;33.25;;;;;7.17;73.07;-19405.00;5070467;27;45298;-94
2022/12/05 06:36:25;;;;;;;;;44.25;34.75;;;;;6.66;73.26;-19391.44;5073454;27;45487;-94
2022/12/05 06:38:51;;;;;;;;;45.25;33.00;;;;;7.02;73.08;-19400.94;5059992;28;45571;-92
2022/12/05 06:41:18;;;;;;;;;43.25;33.25;;;;;7.34;73.04;-19409.59;5078251;27;45699;-95
2022/12/05 06:43:44;;;;;;;;;44.50;33.75;;;;;7.31;72.97;-19408.78;5057205;28;45618;-92
2022/12/05 06:46:12;;;;;;;;;66.00;49.25;;;;;7.35;73.28;-19409.72;5051551;28;45486;-93
2022/12/05 06:48:37;;;;;;;;;46.25;38.25;;;;;6.48;73.45;-19386.84;5049646;28;45493;-89
2022/12/05 06:51:05;;;;;;;;;50.25;40.00;;;;;7.16;72.95;-19404.72;5066826;27;46511;-87
2022/12/05 06:53:31;;;;;;;;;53.00;43.00;;;;;7.36;73.46;-19410.00;5049964;27;46234;-87
2022/12/05 06:56:03;;;;;;;;;49.25;39.00;;;;;7.36;73.50;-19410.00;5072683;27;45435;-88
2022/12/05 06:58:28;;;;;;;;;40.50;36.00;;;;;7.38;73.56;-19410.69;5071708;27;45993;-90
2022/12/05 07:03:39;;;;;;;;;39.25;34.00;;;;;7.40;73.85;-19411.22;5068848;27;45514;-87
2022/12/05 07:06:06;;;;;;;;;31.25;27.75;;;;;7.42;72.94;-19411.63;5075949;27;45567;-86
2022/12/05 07:08:32;;;;;;;;;40.50;35.75;;;;;7.42;73.20;-19411.50;5046122;28;45891;-86
2022/12/05 07:10:58;;;;;;;;;49.50;37.25;;;;;7.38;73.13;-19410.53;5068806;27;46830;-90
2022/12/05 07:13:23;;;;;;;;;66.00;51.75;;;;;7.05;73.32;-19401.75;5075658;27;45859;-90
2022/12/05 07:15:49;;;;;;;;;64.75;50.00;;;;;7.40;72.30;-19411.09;5066920;27;45571;-90
2022/12/05 07:18:16;;;;;;;;;70.75;54.25;;;;;6.30;72.36;-19382.09;5077243;27;45658;-86
2022/12/05 07:20:42;;;;;;;;;66.50;51.25;;;;;7.00;72.42;-19400.53;5060493;27;48536;-95
2022/12/05 07:23:08;;;;;;;;;60.25;46.75;;;;;6.91;72.70;-19398.22;5048614;28;45591;-85
2022/12/05 07:25:33;;;;;;;;;59.00;46.25;;;;;7.35;72.64;-19409.72;5061928;27;45471;-85
2022/12/05 07:27:58;;;;;;;;;54.50;40.25;;;;;7.16;72.62;-19404.88;5079882;27;45880;-85
2022/12/05 07:30:24;;;;;;;;;50.25;42.75;;;;;7.32;72.93;-19408.91;5063179;27;46170;-83
2022/12/05 07:32:49;;;;;;;;;53.75;41.00;;;;;7.32;73.12;-19408.91;5070159;27;45494;-84
2022/12/05 07:35:15;;;;;;;;;42.50;36.75;;;;;6.66;73.03;-19391.59;5068805;27;45654;-83
2022/12/05 07:37:40;;;;;;;;;46.75;37.00;;;;;7.22;73.00;-19406.34;5067644;27;46021;-84
2022/12/05 07:40:07;;;;;;;;;37.25;34.00;;;;;7.29;72.85;-19408.25;5072658;27;45513;-84
2022/12/05 07:42:32;;;;;;;;;51.75;38.50;;;;;7.04;72.93;-19401.47;5075411;27;46235;-83
2022/12/05 07:44:57;;;;;;;;;41.75;37.00;;;;;7.29;73.39;-19408.09;5055331;28;46223;-84
2022/12/05 07:47:22;;;;;;;;;49.25;39.50;;;;;6.77;73.04;-19394.44;5060454;27;45597;-84
2022/12/05 07:49:48;;;;;;;;;50.75;37.50;;;;;7.03;72.89;-19401.34;5074507;27;45732;-84
2022/12/05 07:52:14;;;;;;;;;50.00;39.75;;;;;7.07;72.51;-19402.44;5086348;27;45718;-84
2022/12/05 07:54:39;;;;;;;;;47.75;39.75;;;;;7.21;73.12;-19405.94;5075404;27;45765;-84
2022/12/05 07:57:04;;;;;;;;;45.00;38.50;;;;;7.03;73.25;-19401.34;5056563;27;45757;-84
2022/12/05 07:59:30;;;;;;;;;47.25;38.75;;;;;6.11;72.43;-19376.94;5075389;28;46777;-84
2022/12/05 08:01:55;;;;;;;;;40.50;36.50;;;;;7.18;73.39;-19405.41;5085609;27;45467;-84
2022/12/05 08:04:20;;;;;;;;;41.00;35.00;;;;;7.17;73.16;-19405.13;5079253;27;45830;-83
2022/12/05 08:06:46;;;;;;;;;41.50;36.00;;;;;7.18;73.04;-19405.25;5074742;27;45705;-83
2022/12/05 08:09:12;;;;;;;;;44.75;35.75;;;;;7.17;73.18;-19405.00;5078306;27;45800;-84
2022/12/05 08:11:37;;;;;;;;;48.25;38.00;;;;;7.18;73.23;-19405.41;5083376;27;45833;-84
2022/12/05 08:14:04;;;;;;;;;54.00;42.25;;;;;7.19;73.39;-19405.53;5078924;27;45520;-85
2022/12/05 08:16:30;;;;;;;;;48.00;38.75;;;;;7.18;73.08;-19405.41;5068348;27;45770;-85
2022/12/05 08:18:59;;;;;;;;;45.25;37.25;;;;;6.83;73.72;-19396.06;5075217;27;46247;-85
2022/12/05 08:21:25;;;;;;;;;42.25;36.50;;;;;6.82;73.42;-19395.78;5076723;27;45541;-85
2022/12/05 08:23:51;;;;;;;;;46.25;36.25;;;;;7.18;73.54;-19405.41;5082940;27;45392;-86
2022/12/05 08:26:19;;;;;;;;;48.50;38.75;;;;;7.23;73.84;-19406.63;5061282;27;47141;-85
2022/12/05 08:28:45;;;;;;;;;51.75;40.75;;;;;6.81;73.46;-19395.50;5081255;27;46720;-85
2022/12/05 08:31:14;;;;;;;;;43.00;37.00;;;;;7.06;73.72;-19402.16;5070647;27;45638;-85
2022/12/05 08:33:40;;;;;;;;;37.50;35.50;;;;;7.23;73.59;-19406.47;5060037;28;45520;-85
2022/12/05 08:36:09;;;;;;;;;47.00;37.00;;;;;7.22;73.69;-19406.34;5079803;27;45550;-88
2022/12/05 08:38:35;;;;;;;;;55.25;41.75;;;;;7.23;74.13;-19406.63;5075675;27;46051;-88
2022/12/05 08:41:02;;;;;;;;;47.75;37.75;;;;;6.70;73.47;-19392.66;5082365;27;45965;-87
2022/12/05 08:43:29;;;;;;;;;50.25;38.75;;;;;6.92;73.33;-19398.50;5058739;28;45441;-88
2022/12/05 08:45:54;;;;;;;;;47.50;37.00;;;;;7.24;73.18;-19406.75;5049600;28;46658;-88
2022/12/05 08:48:21;;;;;;;;;36.75;34.75;;;;;7.27;73.54;-19407.69;5068652;27;45451;-88
2022/12/05 08:50:46;;;;;;;;;45.50;36.25;;;;;6.84;73.37;-19396.19;5047836;28;46903;-86
2022/12/05 08:53:11;;;;;;;;;42.25;36.00;;;;;7.02;73.52;-19400.94;5068831;27;45511;-88
2022/12/05 08:55:37;;;;;;;;;45.00;37.75;;;;;6.84;73.13;-19396.31;5049672;28;45694;-87
2022/12/05 08:58:03;;;;;;;;;41.00;36.75;;;;;6.86;73.01;-19396.88;5081274;27;47957;-87
2022/12/05 09:00:28;;;;;;;;;44.75;36.50;;;;;6.84;73.42;-19396.19;5070041;27;45849;-87
2022/12/05 09:02:54;;;;;;;;;43.25;36.25;;;;;7.11;73.29;-19403.38;5084488;27;45543;-88
2022/12/05 09:05:21;;;;;;;;;44.25;36.50;;;;;7.25;73.27;-19407.16;5071562;27;45599;-88
2022/12/05 09:07:46;;;;;;;;;40.50;36.00;;;;;6.75;73.34;-19394.03;5087135;27;45556;-87
2022/12/05 09:10:11;;;;;;;;;45.00;36.25;;;;;7.38;73.00;-19410.69;5080118;27;45633;-87
2022/12/05 09:12:37;;;;;;;;;42.50;37.00;;;;;7.39;72.77;-19410.81;5082948;27;45613;-86
2022/12/05 09:15:08;;;;;;;;;43.00;35.50;;;;;7.40;73.27;-19411.22;5060930;27;45511;-87
2022/12/05 09:17:34;;;;;;;;;42.00;36.00;;;;;6.85;72.64;-19396.59;5065032;27;48234;-87
2022/12/05 09:19:59;;;;;;;;;41.00;35.25;;;;;7.05;72.71;-19401.75;5091310;27;45558;-94
2022/12/05 09:22:25;;;;;;;;;49.50;37.00;;;;;6.32;72.89;-19382.50;5060526;28;45846;-95
2022/12/05 09:24:50;;;;;;;;;50.00;38.75;;;;;7.04;72.56;-19401.47;5080351;27;45411;-94
2022/12/05 09:27:15;;;;;;;;;44.50;37.00;;;;;6.51;72.82;-19387.66;5087569;27;45778;-92
2022/12/05 09:29:42;;;;;;;;;43.75;38.25;;;;;7.39;72.88;-19410.94;5067201;27;45509;-93
2022/12/05 09:32:08;;;;;;;;;43.00;36.50;;;;;7.51;73.23;-19413.94;5069563;28;45789;-93
2022/12/05 09:34:35;;;;;;;;;41.00;36.25;;;;;7.52;73.24;-19414.34;5074949;27;45741;-94
2022/12/05 09:37:01;;;;;;;;;46.25;36.50;;;;;6.83;73.09;-19395.91;5076213;27;45745;-93
2022/12/05 09:39:27;;;;;;;;;49.00;39.25;;;;;7.53;73.14;-19414.59;5084010;27;45427;-94
2022/12/05 09:42:04;;;;;;;;;45.25;37.50;;;;;7.50;72.77;-19413.78;5073586;27;45521;-94
2022/12/05 09:44:48;;;;;;;;;53.00;39.00;;;;;7.50;72.94;-19413.78;5047559;28;46193;-95
2022/12/05 09:47:26;;;;;;;;;42.50;36.25;;;;;7.52;73.25;-19414.34;5060800;27;45827;-94
2022/12/05 09:50:00;;;;;;;;;45.00;36.00;;;;;7.02;73.02;-19400.94;5080110;27;45338;-93
2022/12/05 09:52:38;;;;;;;;;48.75;37.00;;;;;7.58;73.48;-19415.97;5062558;28;45630;-94
2022/12/05 09:55:18;;;;;;;;;34.50;31.75;;;;;7.60;72.34;-19416.38;5072974;28;45485;-94
2022/12/05 09:57:52;;;;;;;;;40.25;33.75;;;;;6.97;73.13;-19399.84;5054240;27;48692;-94
2022/12/05 10:00:18;;;;;;;;;36.00;34.25;;;;;7.40;73.27;-19411.22;5077886;27;46058;-92
2022/12/05 10:02:56;;;;;;;;;39.00;32.75;;;;;7.16;73.08;-19404.88;5085173;27;45416;-92
2022/12/05 10:05:34;;;;;;;;;47.25;36.50;;;;;7.68;72.99;-19418.53;5103589;27;45810;-92
2022/12/05 10:08:31;;;;;;;;;43.75;36.00;;;;;7.69;72.87;-19418.66;5064813;28;45794;-92
2022/12/05 10:10:56;;;;;;;;;39.00;31.75;;;;;7.73;72.58;-19419.88;5070333;27;45659;-92
2022/12/05 10:13:27;;;;;;;;;49.25;35.25;;;;;6.95;72.61;-19399.31;5096602;27;45735;-92
2022/12/05 10:15:58;;;;;;;;;47.50;36.25;;;;;7.75;72.49;-19420.44;5057744;28;45445;-91
2022/12/05 10:18:42;;;;;;;;;46.75;39.00;;;;;7.75;72.29;-19420.28;5075562;27;45563;-92
2022/12/05 10:21:07;;;;;;;;;51.00;36.50;;;;;7.78;72.49;-19421.09;5074719;27;45437;-92
2022/12/05 10:23:45;;;;;;;;;45.25;38.50;;;;;7.79;72.30;-19421.38;5076110;27;45715;-92
2022/12/05 10:26:14;;;;;;;;;45.75;36.75;;;;;7.81;71.96;-19422.03;5076398;27;45444;-92
2022/12/05 10:28:59;;;;;;;;;49.50;39.25;;;;;7.83;71.55;-19422.59;5081585;27;45861;-91
2022/12/05 10:31:29;;;;;;;;;42.75;37.00;;;;;7.86;71.24;-19423.13;5074780;27;45459;-91
2022/12/05 10:34:29;;;;;;;;;49.50;36.25;;;;;7.85;71.59;-19422.88;5063583;27;45464;-91
2022/12/05 10:37:15;;;;;;;;;47.00;38.75;;;;;7.22;71.75;-19406.22;5049239;27;45644;-92
2022/12/05 10:39:41;;;;;;;;;46.75;38.50;;;;;7.87;71.82;-19423.53;5066841;27;47598;-92
2022/12/05 10:42:20;;;;;;;;;45.25;36.25;;;;;7.20;72.12;-19405.81;5094833;27;45523;-91
2022/12/05 10:44:48;;;;;;;;;46.25;37.75;;;;;7.50;72.29;-19413.66;5068094;28;45490;-91
2022/12/05 10:47:13;;;;;;;;;38.00;31.00;;;;;7.31;71.85;-19408.78;5038512;28;45674;-91
2022/12/05 10:49:39;;;;;;;;;46.75;35.75;;;;;7.61;71.72;-19416.78;5068209;28;48255;-92
2022/12/05 10:52:05;;;;;;;;;48.00;39.25;;;;;7.49;71.54;-19413.53;5059156;28;45691;-91
2022/12/05 10:54:40;;;;;;;;;51.25;41.00;;;;;7.77;71.85;-19420.97;5076488;27;45415;-92
2022/12/05 10:57:21;;;;;;;;;51.75;38.75;;;;;7.93;71.59;-19425.03;5077070;27;45576;-92
2022/12/05 10:59:46;;;;;;;;;43.00;36.25;;;;;7.55;71.20;-19415.00;5062548;27;45930;-92
2022/12/05 11:02:28;;;;;;;;;55.50;44.25;;;;;7.94;71.75;-19425.28;5057717;27;45499;-92
2022/12/05 11:04:55;;;;;;;;;53.50;39.75;;;;;7.71;71.50;-19419.22;5047957;28;45448;-92
2022/12/05 11:07:57;;;;;;;;;53.75;42.50;;;;;7.87;70.98;-19423.41;5077092;27;45669;-92
2022/12/05 11:10:31;;;;;;;;;483.25;286.00;;;;;7.53;70.91;-19414.59;4994716;28;47181;-92
2022/12/05 11:12:58;;;;;;;;;50.00;40.00;;;;;7.24;71.07;-19406.88;4997850;28;45448;-91
2022/12/05 11:15:26;;;;;;;;;56.25;43.75;;;;;7.86;71.53;-19423.13;4996579;28;45652;-92
2022/12/05 11:17:54;;;;;;;;;50.50;39.50;;;;;7.11;70.70;-19403.50;4979120;28;45466;-90
2022/12/05 11:20:19;;;;;;;;;52.75;40.50;;;;;7.82;71.66;-19422.19;5008306;28;48199;-93
2022/12/05 11:22:55;;;;;;;;;53.75;42.25;;;;;7.80;71.42;-19421.66;5003485;28;45881;-92
2022/12/05 11:25:35;;;;;;;;;52.75;40.00;;;;;7.81;71.26;-19421.91;5013357;28;45425;-91
2022/12/05 11:28:15;;;;;;;;;43.75;36.25;;;;;7.82;71.09;-19422.31;4997137;28;45468;-90
2022/12/05 11:30:56;;;;;;;;;40.25;36.75;;;;;7.79;70.51;-19421.50;5004690;28;46802;-90
2022/12/05 11:33:23;;;;;;;;;52.00;42.00;;;;;7.71;70.81;-19419.34;5006547;28;46008;-91
2022/12/05 11:35:56;;;;;;;;;50.50;37.50;;;;;7.76;70.65;-19420.69;4984489;28;45507;-91
2022/12/05 11:38:26;;;;;;;;;48.25;39.25;;;;;7.42;70.77;-19411.50;4991512;28;45585;-91